Felton, Pennsylvania
Current Conditions -  °F | °C
As of 3:53 PM on Friday 28 Nov 2014 (Local Time) from KTHV Reporting Station
Clear Clear  
Wind Chill: 28°   Ceiling: Unl
Heat Index: 33°   Visibility: 10mi
Dew Point: 16°   Wind: 6mph
Humidity: 50%   Direction: 280°W
Pressure: 30.24"   Gusts: NA
Location:  39.85°N, 76.56°W
Report Text: KTHV 282053Z AUTO 28005KT 10SM CLR 01/M09 A3024 RMK AO2 SLP247 T00061089 55002
Loading
Personal Weather Stations






























Interactive Weather Map New forecast layout! Learn more

10-Day Weather Forecast

Advertisements
Track Severe Weather on mobile